createdAt,value
2022-09-13T00:02:04.991Z,21.00
2022-09-13T00:04:31.663Z,21.00
2022-09-13T00:06:58.236Z,20.90
2022-09-13T00:09:24.913Z,20.90
2022-09-13T00:11:52.066Z,20.90
2022-09-13T00:14:18.693Z,20.90
2022-09-13T00:16:45.360Z,20.80
2022-09-13T00:19:12.234Z,20.80
2022-09-13T00:21:38.846Z,20.80
2022-09-13T00:24:05.777Z,20.70
2022-09-13T00:26:32.406Z,20.70
2022-09-13T00:28:59.333Z,20.70
2022-09-13T00:31:27.589Z,20.70
2022-09-13T00:33:55.098Z,20.70
2022-09-13T00:36:21.757Z,20.60
2022-09-13T00:38:48.383Z,20.60
2022-09-13T00:41:17.005Z,20.60
2022-09-13T00:43:55.847Z,20.50
2022-09-13T00:46:24.632Z,20.50
2022-09-13T00:48:54.472Z,20.40
2022-09-13T00:51:21.145Z,20.40
2022-09-13T00:53:51.375Z,20.40
2022-09-13T00:56:27.658Z,20.40
2022-09-13T01:00:54.274Z,20.30
2022-09-13T01:03:22.736Z,20.40
2022-09-13T01:05:56.770Z,20.30
2022-09-13T01:08:23.614Z,20.30
2022-09-13T01:10:54.222Z,20.20
2022-09-13T01:13:22.953Z,20.20
2022-09-13T01:15:49.967Z,20.20
2022-09-13T01:18:16.802Z,20.10
2022-09-13T01:21:13.871Z,20.10
2022-09-13T01:23:58.976Z,20.10
2022-09-13T01:26:53.976Z,20.10
2022-09-13T01:29:34.435Z,20.00
2022-09-13T01:32:40.987Z,20.00
2022-09-13T01:35:23.114Z,20.00
2022-09-13T01:38:03.086Z,19.90
2022-09-13T01:40:44.132Z,19.90
2022-09-13T01:43:29.667Z,19.80
2022-09-13T01:46:19.985Z,19.80
2022-09-13T01:49:00.425Z,19.80
2022-09-13T01:51:37.315Z,19.80
2022-09-13T01:54:12.906Z,19.80
2022-09-13T01:57:08.926Z,19.80
2022-09-13T01:59:54.455Z,19.70
2022-09-13T02:02:34.117Z,19.70
2022-09-13T02:05:26.297Z,19.60
2022-09-13T02:08:04.130Z,19.70
2022-09-13T02:10:35.302Z,19.60
2022-09-13T02:13:05.953Z,19.60
2022-09-13T02:15:38.704Z,19.60
2022-09-13T02:18:09.853Z,19.60
2022-09-13T02:20:44.084Z,19.50
2022-09-13T02:23:14.621Z,19.50
2022-09-13T02:25:41.712Z,19.40
2022-09-13T02:28:12.981Z,19.30
2022-09-13T02:30:43.532Z,19.40
2022-09-13T02:33:29.487Z,19.40
2022-09-13T02:36:09.907Z,19.40
2022-09-13T02:38:48.943Z,19.30
2022-09-13T02:41:25.596Z,19.30
2022-09-13T02:44:01.589Z,19.30
2022-09-13T02:46:48.399Z,19.30
2022-09-13T02:49:29.380Z,19.30
2022-09-13T02:52:16.969Z,19.30
2022-09-13T02:55:03.737Z,19.30
2022-09-13T02:57:32.313Z,19.20
2022-09-13T02:59:59.616Z,19.20
2022-09-13T03:02:31.455Z,19.20
2022-09-13T03:04:59.476Z,19.10
2022-09-13T03:07:26.519Z,19.10
2022-09-13T03:09:56.063Z,19.10
2022-09-13T03:12:55.871Z,19.00
2022-09-13T03:15:31.603Z,19.00
2022-09-13T03:18:23.181Z,19.00
2022-09-13T03:21:11.331Z,19.00
2022-09-13T03:23:41.158Z,18.90
2022-09-13T03:26:16.704Z,18.90
2022-09-13T03:29:15.070Z,18.90
2022-09-13T03:31:41.697Z,18.90
2022-09-13T03:34:42.265Z,18.90
2022-09-13T03:37:14.355Z,18.80
2022-09-13T03:39:46.173Z,18.80
2022-09-13T03:42:48.508Z,18.80
2022-09-13T03:45:17.502Z,18.80
2022-09-13T03:47:46.510Z,18.70
2022-09-13T03:50:18.122Z,18.70
2022-09-13T03:52:46.648Z,18.70
2022-09-13T03:55:13.363Z,18.60
2022-09-13T03:57:40.200Z,18.60
2022-09-13T04:00:07.360Z,18.60
2022-09-13T04:02:34.318Z,18.60
2022-09-13T04:05:01.595Z,18.60
2022-09-13T04:07:28.355Z,18.50
2022-09-13T04:09:56.035Z,18.50
2022-09-13T04:12:23.025Z,18.50
2022-09-13T04:14:49.857Z,18.50
2022-09-13T04:17:16.691Z,18.40
2022-09-13T04:19:45.604Z,18.50
2022-09-13T04:22:12.397Z,18.40
2022-09-13T04:24:39.802Z,18.40
2022-09-13T04:27:07.184Z,18.40
2022-09-13T04:29:33.828Z,18.40
2022-09-13T04:32:00.834Z,18.30
2022-09-13T04:34:28.019Z,18.30
2022-09-13T04:36:55.517Z,18.30
2022-09-13T04:39:23.731Z,18.30
2022-09-13T04:41:51.978Z,18.30
2022-09-13T04:44:19.136Z,18.20
2022-09-13T04:46:49.565Z,18.20
2022-09-13T04:49:20.043Z,18.20
2022-09-13T04:51:46.995Z,18.20
2022-09-13T04:54:16.253Z,18.10
2022-09-13T04:56:43.825Z,18.10
2022-09-13T04:59:11.381Z,18.10
2022-09-13T05:01:38.303Z,18.10
2022-09-13T05:04:06.419Z,18.00
2022-09-13T05:06:33.138Z,18.00
2022-09-13T05:08:59.850Z,18.00
2022-09-13T05:11:27.885Z,18.00
2022-09-13T05:13:56.586Z,18.00
2022-09-13T05:16:25.082Z,18.00
2022-09-13T05:18:52.514Z,18.00
2022-09-13T05:21:19.817Z,18.00
2022-09-13T05:23:49.633Z,18.00
2022-09-13T05:26:18.338Z,17.90
2022-09-13T05:28:44.992Z,17.90
2022-09-13T05:31:35.295Z,17.90
2022-09-13T05:34:07.554Z,17.90
2022-09-13T05:36:34.778Z,17.90
2022-09-13T05:39:28.372Z,17.90
2022-09-13T05:41:48.522Z,17.90
2022-09-13T05:44:15.267Z,17.90
2022-09-13T05:46:43.139Z,17.80
2022-09-13T05:49:12.446Z,17.90
2022-09-13T05:51:39.120Z,17.80
2022-09-13T05:54:05.848Z,17.90
2022-09-13T05:56:32.586Z,17.80
2022-09-13T05:58:59.314Z,17.80
2022-09-13T06:01:27.700Z,17.80
2022-09-13T06:03:56.440Z,17.80
2022-09-13T06:06:24.012Z,17.80
2022-09-13T06:08:55.339Z,17.80
2022-09-13T06:11:22.723Z,17.80
2022-09-13T06:13:49.425Z,17.80
2022-09-13T06:16:16.906Z,17.80
2022-09-13T06:18:44.109Z,17.80
2022-09-13T06:21:17.515Z,17.80
2022-09-13T06:23:52.052Z,17.80
2022-09-13T06:26:23.798Z,17.80
2022-09-13T06:28:52.432Z,17.80
2022-09-13T06:31:22.237Z,17.80
2022-09-13T06:33:48.954Z,17.80
2022-09-13T06:36:20.481Z,17.80
2022-09-13T06:38:50.952Z,17.80
2022-09-13T06:41:19.948Z,17.80
2022-09-13T06:43:47.965Z,17.90
2022-09-13T06:46:17.937Z,17.90
2022-09-13T06:48:48.538Z,17.90
2022-09-13T06:51:20.450Z,17.90
2022-09-13T06:53:48.405Z,17.90
2022-09-13T06:56:21.976Z,17.90
2022-09-13T06:58:50.758Z,17.90
2022-09-13T07:01:23.119Z,18.00
2022-09-13T07:03:52.431Z,18.10
2022-09-13T07:06:22.541Z,18.10
2022-09-13T07:08:51.279Z,18.10
2022-09-13T07:11:20.509Z,18.10
2022-09-13T07:13:51.857Z,18.20
2022-09-13T07:16:20.253Z,18.20
2022-09-13T07:18:54.389Z,18.20
2022-09-13T07:21:22.181Z,18.30
2022-09-13T07:23:49.440Z,18.30
2022-09-13T07:26:16.385Z,18.40
2022-09-13T07:28:45.058Z,18.40
2022-09-13T07:31:22.894Z,18.40
2022-09-13T07:33:55.498Z,18.50
2022-09-13T07:36:22.328Z,18.50
2022-09-13T07:38:49.317Z,18.50
2022-09-13T07:41:18.107Z,18.50
2022-09-13T07:43:45.194Z,18.60
2022-09-13T07:46:17.843Z,18.60
2022-09-13T07:48:45.650Z,18.70
2022-09-13T07:51:17.301Z,18.70
2022-09-13T07:53:45.127Z,18.70
2022-09-13T07:56:17.305Z,18.80
2022-09-13T07:58:45.574Z,18.90
2022-09-13T08:01:20.286Z,18.90
2022-09-13T08:03:58.097Z,19.00
2022-09-13T08:06:26.122Z,19.00
2022-09-13T08:08:53.068Z,19.10
2022-09-13T08:11:25.460Z,19.20
2022-09-13T08:13:53.000Z,19.20
2022-09-13T08:16:21.672Z,19.20
2022-09-13T08:18:50.436Z,19.70
2022-09-13T08:21:17.319Z,19.40
2022-09-13T08:23:45.191Z,19.50
2022-09-13T08:26:12.361Z,19.50
2022-09-13T08:28:40.848Z,19.60
2022-09-13T08:31:10.059Z,19.70
2022-09-13T08:33:37.285Z,19.70
2022-09-13T08:36:04.977Z,19.80
2022-09-13T08:38:32.430Z,19.90
2022-09-13T08:41:03.013Z,20.00
2022-09-13T08:43:47.685Z,20.10
2022-09-13T08:46:23.867Z,20.20
2022-09-13T08:48:52.783Z,20.30
2022-09-13T08:51:25.109Z,20.30
2022-09-13T08:53:51.770Z,20.40
2022-09-13T08:56:29.601Z,20.50
2022-09-13T08:59:31.542Z,20.60
2022-09-13T09:02:10.373Z,20.70
2022-09-13T09:04:45.967Z,20.80
2022-09-13T09:07:17.326Z,20.90
2022-09-13T09:10:04.865Z,21.10
2022-09-13T09:12:47.689Z,21.20
2022-09-13T09:15:21.961Z,21.20
2022-09-13T09:18:03.109Z,21.30
2022-09-13T09:20:47.882Z,21.40
2022-09-13T09:23:23.738Z,21.50
2022-09-13T09:25:57.889Z,21.60
2022-09-13T09:28:25.742Z,21.80
2022-09-13T09:31:06.132Z,21.80
2022-09-13T09:33:54.952Z,21.90
2022-09-13T09:36:28.694Z,22.00
2022-09-13T09:38:56.165Z,22.10
2022-09-13T09:41:26.831Z,22.20
2022-09-13T09:44:22.695Z,22.40
2022-09-13T09:47:06.369Z,22.40
2022-09-13T09:50:07.095Z,22.50
2022-09-13T09:52:59.707Z,22.60
2022-09-13T09:55:31.757Z,22.70
2022-09-13T09:58:02.059Z,22.80
2022-09-13T10:00:31.707Z,22.90
2022-09-13T10:03:19.983Z,23.00
2022-09-13T10:05:46.920Z,23.10
2022-09-13T10:08:31.721Z,23.10
2022-09-13T10:11:02.170Z,23.20
2022-09-13T10:13:32.021Z,23.30
2022-09-13T10:16:03.239Z,23.40
2022-09-13T10:18:46.871Z,23.50
2022-09-13T10:21:19.405Z,23.50
2022-09-13T10:23:47.398Z,23.60
2022-09-13T10:26:20.887Z,23.70
2022-09-13T10:29:13.565Z,23.80
2022-09-13T10:31:43.128Z,23.90
2022-09-13T10:34:23.360Z,24.00
2022-09-13T10:37:30.947Z,24.00
2022-09-13T10:40:09.333Z,24.20
2022-09-13T10:42:36.422Z,24.30
2022-09-13T10:45:07.578Z,24.30
2022-09-13T10:47:43.687Z,24.40
2022-09-13T10:50:22.316Z,24.50
2022-09-13T10:52:49.760Z,24.60
2022-09-13T10:55:16.512Z,24.70
2022-09-13T10:57:43.464Z,24.80
2022-09-13T11:00:13.245Z,24.90
2022-09-13T11:03:03.229Z,25.00
2022-09-13T11:05:37.900Z,25.10
2022-09-13T11:08:30.602Z,25.20
2022-09-13T11:11:09.640Z,25.30
2022-09-13T11:13:46.098Z,25.50
2022-09-13T11:16:20.846Z,25.60
2022-09-13T11:19:02.381Z,25.70
2022-09-13T11:21:47.564Z,25.70
2022-09-13T11:24:22.844Z,25.90
2022-09-13T11:27:01.228Z,26.10
2022-09-13T11:29:49.698Z,26.20
2022-09-13T11:32:38.590Z,26.30
2022-09-13T11:35:23.428Z,26.30
2022-09-13T11:38:19.829Z,26.50
2022-09-13T11:41:31.229Z,26.60
2022-09-13T11:44:24.691Z,26.70
2022-09-13T11:47:01.466Z,26.90
2022-09-13T11:50:02.457Z,27.00
2022-09-13T11:53:00.036Z,27.10
2022-09-13T11:55:30.666Z,27.10
2022-09-13T11:58:00.800Z,27.20
2022-09-13T12:00:41.876Z,27.30
2022-09-13T12:03:13.368Z,27.40
2022-09-13T12:05:51.447Z,27.50
2022-09-13T12:08:32.026Z,27.50
2022-09-13T12:11:05.785Z,27.60
2022-09-13T12:13:40.175Z,27.80
2022-09-13T12:16:13.929Z,27.90
2022-09-13T12:18:50.117Z,27.90
2022-09-13T12:21:53.081Z,28.20
2022-09-13T12:24:21.724Z,28.30
2022-09-13T12:26:51.225Z,28.30
2022-09-13T12:29:40.652Z,28.40
2022-09-13T12:32:09.444Z,28.50
2022-09-13T12:34:45.295Z,28.60
2022-09-13T12:37:38.401Z,28.60
2022-09-13T12:40:23.677Z,28.70
2022-09-13T12:43:14.965Z,28.80
2022-09-13T12:46:03.964Z,28.90
2022-09-13T12:48:36.678Z,29.00
2022-09-13T12:51:25.122Z,29.10
2022-09-13T12:54:17.672Z,29.20
2022-09-13T12:57:25.802Z,29.30
2022-09-13T13:00:22.376Z,29.50
2022-09-13T13:03:11.725Z,29.50
2022-09-13T13:05:42.481Z,29.60
2022-09-13T13:08:21.564Z,29.70
2022-09-13T13:11:10.289Z,29.70
2022-09-13T13:13:39.336Z,29.80
2022-09-13T13:16:27.540Z,29.90
2022-09-13T13:18:57.190Z,30.00
2022-09-13T13:21:39.006Z,30.00
2022-09-13T13:24:32.057Z,30.00
2022-09-13T13:26:58.973Z,30.10
2022-09-13T13:29:29.940Z,30.10
2022-09-13T13:32:07.340Z,30.20
2022-09-13T13:34:36.039Z,30.20
2022-09-13T13:37:05.709Z,30.20
2022-09-13T13:39:33.988Z,30.30
2022-09-13T13:42:20.633Z,30.30
2022-09-13T13:44:47.250Z,30.50
2022-09-13T13:47:13.821Z,30.60
2022-09-13T13:49:40.687Z,30.70
2022-09-13T13:52:17.716Z,30.70
2022-09-13T13:55:04.245Z,30.80
2022-09-13T13:57:38.670Z,30.90
2022-09-13T14:00:21.255Z,31.00
2022-09-13T14:02:50.909Z,31.00
2022-09-13T14:05:20.383Z,31.00
2022-09-13T14:08:20.422Z,31.00
2022-09-13T14:11:01.033Z,31.00
2022-09-13T14:13:50.947Z,31.10
2022-09-13T14:16:37.026Z,31.10
2022-09-13T14:19:07.506Z,31.20
2022-09-13T14:21:34.521Z,31.20
2022-09-13T14:24:18.550Z,31.20
2022-09-13T14:26:46.853Z,31.20
2022-09-13T14:29:17.879Z,31.30
2022-09-13T14:31:52.296Z,31.30
2022-09-13T14:34:35.173Z,31.30
2022-09-13T14:37:15.778Z,31.30
2022-09-13T14:39:56.867Z,31.30
2022-09-13T14:42:23.698Z,31.30
2022-09-13T14:44:50.386Z,31.30
2022-09-13T14:47:22.185Z,31.30
2022-09-13T14:50:12.960Z,31.40
2022-09-13T14:52:58.155Z,31.40
2022-09-13T14:55:31.782Z,31.40
2022-09-13T14:58:04.185Z,31.40
2022-09-13T15:00:34.133Z,31.40
2022-09-13T15:03:10.977Z,31.40
2022-09-13T15:05:37.657Z,31.50
2022-09-13T15:08:34.910Z,31.50
2022-09-13T15:11:03.966Z,31.40
2022-09-13T15:13:30.611Z,31.50
2022-09-13T15:15:57.704Z,31.50
2022-09-13T15:18:25.725Z,31.40
2022-09-13T15:21:01.889Z,31.40
2022-09-13T15:23:34.515Z,31.40
2022-09-13T15:26:13.989Z,31.40
2022-09-13T15:28:43.322Z,31.10
2022-09-13T15:31:11.234Z,31.30
2022-09-13T15:33:38.105Z,31.30
2022-09-13T15:36:15.270Z,31.30
2022-09-13T15:38:59.007Z,31.20
2022-09-13T15:41:31.477Z,31.20
2022-09-13T15:44:03.015Z,31.20
2022-09-13T15:46:30.459Z,31.10
2022-09-13T15:48:59.865Z,31.10
2022-09-13T15:51:26.702Z,31.00
2022-09-13T15:53:54.505Z,31.00
2022-09-13T15:56:23.829Z,31.00
2022-09-13T15:58:50.509Z,30.90
2022-09-13T16:01:18.117Z,30.90
2022-09-13T16:03:45.174Z,30.80
2022-09-13T16:06:11.849Z,30.80
2022-09-13T16:08:39.418Z,30.80
2022-09-13T16:11:06.935Z,30.70
2022-09-13T16:13:33.773Z,30.70
2022-09-13T16:16:00.509Z,30.60
2022-09-13T16:18:27.427Z,30.60
2022-09-13T16:20:54.094Z,30.60
2022-09-13T16:23:20.718Z,30.50
2022-09-13T16:25:55.070Z,30.50
2022-09-13T16:28:21.728Z,30.50
2022-09-13T16:30:48.935Z,30.40
2022-09-13T16:33:15.542Z,30.40
2022-09-13T16:35:42.321Z,30.40
2022-09-13T16:38:10.592Z,30.30
2022-09-13T16:40:41.567Z,30.30
2022-09-13T16:43:09.188Z,30.20
2022-09-13T16:45:40.404Z,30.20
2022-09-13T16:48:07.726Z,30.20
2022-09-13T16:50:35.249Z,30.20
2022-09-13T16:53:02.341Z,30.10
2022-09-13T16:55:28.993Z,30.10
2022-09-13T16:57:55.645Z,30.00
2022-09-13T17:00:24.407Z,30.00
2022-09-13T17:02:51.530Z,30.00
2022-09-13T17:05:18.313Z,29.90
2022-09-13T17:07:44.952Z,29.90
2022-09-13T17:10:12.586Z,29.90
2022-09-13T17:12:40.000Z,29.80
2022-09-13T17:15:07.165Z,29.70
2022-09-13T17:17:36.214Z,29.70
2022-09-13T17:20:08.959Z,29.60
2022-09-13T17:22:36.646Z,29.60
2022-09-13T17:25:04.287Z,29.60
2022-09-13T17:27:30.983Z,29.50
2022-09-13T17:29:57.687Z,29.50
2022-09-13T17:32:24.332Z,29.40
2022-09-13T17:34:50.940Z,29.40
2022-09-13T17:37:17.582Z,29.30
2022-09-13T17:39:44.232Z,29.30
2022-09-13T17:42:10.928Z,29.30
2022-09-13T17:44:37.567Z,29.30
2022-09-13T17:47:06.149Z,29.20
2022-09-13T17:49:32.751Z,29.20
2022-09-13T17:51:59.377Z,29.20
2022-09-13T17:54:26.537Z,29.20
2022-09-13T17:56:53.156Z,29.10
2022-09-13T17:59:21.318Z,29.10
2022-09-13T18:01:51.360Z,29.10
2022-09-13T18:04:20.300Z,29.10
2022-09-13T18:06:47.475Z,28.70
2022-09-13T18:09:15.579Z,29.00
2022-09-13T18:11:42.888Z,28.90
2022-09-13T18:14:14.480Z,28.80
2022-09-13T18:16:41.828Z,28.70
2022-09-13T18:19:09.122Z,28.70
2022-09-13T18:21:35.865Z,28.70
2022-09-13T18:24:02.795Z,28.60
2022-09-13T18:26:31.039Z,28.60
2022-09-13T18:29:01.639Z,28.50
2022-09-13T18:31:29.670Z,28.50
2022-09-13T18:33:58.544Z,28.40
2022-09-13T18:36:26.396Z,28.40
2022-09-13T18:38:54.146Z,28.30
2022-09-13T18:41:23.911Z,28.30
2022-09-13T18:43:55.391Z,28.20
2022-09-13T18:46:25.119Z,28.20
2022-09-13T18:48:57.121Z,28.10
2022-09-13T18:51:27.904Z,28.00
2022-09-13T18:53:55.749Z,28.00
2022-09-13T18:56:23.445Z,27.90
2022-09-13T18:58:51.126Z,27.90
2022-09-13T19:01:21.180Z,27.80
2022-09-13T19:03:53.079Z,27.70
2022-09-13T19:06:22.445Z,27.60
2022-09-13T19:08:50.560Z,27.60
2022-09-13T19:11:42.071Z,27.60
2022-09-13T19:14:06.251Z,27.60
2022-09-13T19:16:33.196Z,27.50
2022-09-13T19:18:59.823Z,27.40
2022-09-13T19:21:31.245Z,27.40
2022-09-13T19:24:02.346Z,27.40
2022-09-13T19:26:38.282Z,27.40
2022-09-13T19:29:07.645Z,27.30
2022-09-13T19:31:37.178Z,27.30
2022-09-13T19:34:06.176Z,27.20
2022-09-13T19:36:34.595Z,27.20
2022-09-13T19:39:01.998Z,27.10
2022-09-13T19:41:32.017Z,27.00
2022-09-13T19:44:00.616Z,27.00
2022-09-13T19:46:31.441Z,27.00
2022-09-13T19:48:59.412Z,27.00
2022-09-13T19:51:35.024Z,26.90
2022-09-13T19:54:01.823Z,26.90
2022-09-13T19:56:37.964Z,26.80
2022-09-13T19:59:06.273Z,26.80
2022-09-13T20:01:35.394Z,26.80
2022-09-13T20:04:04.456Z,26.70
2022-09-13T20:06:38.375Z,26.70
2022-09-13T20:09:05.285Z,26.60
2022-09-13T20:11:33.032Z,26.60
2022-09-13T20:14:00.363Z,26.50
2022-09-13T20:16:32.155Z,26.50
2022-09-13T20:18:59.147Z,26.40
2022-09-13T20:21:27.721Z,26.40
2022-09-13T20:23:57.457Z,26.40
2022-09-13T20:26:28.005Z,26.40
2022-09-13T20:28:59.934Z,26.30
2022-09-13T20:31:28.249Z,26.20
2022-09-13T20:33:56.172Z,26.20
2022-09-13T20:36:23.861Z,26.20
2022-09-13T20:38:52.574Z,26.20
2022-09-13T20:41:19.705Z,26.20
2022-09-13T20:43:48.037Z,26.10
2022-09-13T20:46:15.963Z,26.10
2022-09-13T20:48:44.440Z,26.00
2022-09-13T20:51:13.114Z,26.00
2022-09-13T20:53:40.042Z,26.00
2022-09-13T20:56:08.948Z,25.90
2022-09-13T20:58:38.840Z,25.90
2022-09-13T21:01:09.157Z,25.80
2022-09-13T21:03:37.136Z,25.80
2022-09-13T21:06:05.234Z,25.70
2022-09-13T21:08:50.226Z,25.70
2022-09-13T21:11:33.925Z,25.70
2022-09-13T21:14:09.441Z,25.70
2022-09-13T21:16:39.083Z,25.70
2022-09-13T21:19:06.376Z,25.70
2022-09-13T21:21:35.549Z,25.60
2022-09-13T21:24:04.331Z,25.50
2022-09-13T21:26:32.071Z,25.50
2022-09-13T21:28:58.795Z,25.50
2022-09-13T21:31:30.587Z,25.40
2022-09-13T21:34:08.450Z,25.40
2022-09-13T21:36:35.874Z,25.40
2022-09-13T21:39:03.543Z,25.30
2022-09-13T21:41:30.782Z,25.30
2022-09-13T21:43:57.511Z,25.30
2022-09-13T21:46:26.432Z,25.20
2022-09-13T21:48:58.791Z,25.20
2022-09-13T21:51:43.260Z,25.20
2022-09-13T21:54:14.032Z,25.20
2022-09-13T21:56:43.948Z,25.10
2022-09-13T21:59:15.196Z,25.10
2022-09-13T22:01:46.253Z,25.10
2022-09-13T22:04:17.006Z,25.10
2022-09-13T22:06:44.877Z,25.10
2022-09-13T22:09:13.015Z,25.00
2022-09-13T22:11:43.624Z,25.00
2022-09-13T22:14:13.357Z,24.90
2022-09-13T22:16:42.114Z,24.90
2022-09-13T22:19:12.562Z,24.90
2022-09-13T22:21:42.081Z,24.80
2022-09-13T22:24:12.269Z,24.80
2022-09-13T22:26:40.621Z,24.80
2022-09-13T22:29:07.719Z,24.80
2022-09-13T22:31:38.184Z,24.80
2022-09-13T22:34:05.526Z,24.70
2022-09-13T22:36:32.656Z,24.80
2022-09-13T22:38:59.343Z,24.70
2022-09-13T22:41:28.333Z,24.60
2022-09-13T22:43:55.309Z,24.60
2022-09-13T22:46:24.235Z,24.60
2022-09-13T22:48:51.087Z,24.60
2022-09-13T22:51:18.502Z,24.60
2022-09-13T22:53:46.775Z,24.50
2022-09-13T22:56:14.603Z,24.50
2022-09-13T22:58:41.557Z,24.50
2022-09-13T23:01:17.222Z,24.40
2022-09-13T23:03:45.516Z,24.40
2022-09-13T23:06:14.085Z,24.40
2022-09-13T23:08:40.741Z,24.40
2022-09-13T23:11:25.331Z,24.40
2022-09-13T23:13:53.644Z,24.30
2022-09-13T23:16:21.253Z,24.30
2022-09-13T23:18:48.400Z,24.30
2022-09-13T23:21:18.416Z,24.20
2022-09-13T23:23:45.308Z,24.20
2022-09-13T23:26:14.907Z,24.20
2022-09-13T23:28:41.507Z,24.10
2022-09-13T23:31:35.205Z,24.20
2022-09-13T23:34:05.338Z,24.10
2022-09-13T23:36:37.569Z,24.10
2022-09-13T23:39:06.725Z,24.10
2022-09-13T23:41:34.140Z,24.10
2022-09-13T23:44:01.976Z,24.00
2022-09-13T23:46:29.111Z,24.00
2022-09-13T23:48:56.265Z,24.00
2022-09-13T23:51:24.682Z,24.00
2022-09-13T23:56:30.336Z,23.90
2022-09-13T23:58:58.332Z,23.90
